Time;durP1;ratioP1;P1;durP2;ratioP2;P2;SDS_P1;SDS_P2;PMS_P1;PMS_P2;Temp;Humidity;BMP_temperature;BMP_pressure;BME280_temperature;BME280_humidity;BME280_pressure;Samples;Min_cycle;Max_cycle;Signal;HPM_P1;HPM_P2
2023/12/14 00:01:27;;;;;;;9.05;4.15;;;;;;;;;;5091100;28;20099;-79
2023/12/14 00:03:53;;;;;;;7.30;3.38;;;;;;;;;;5086815;28;20112;-78
2023/12/14 00:06:19;;;;;;;8.02;4.40;;;;;;;;;;5062117;28;20029;-79
2023/12/14 00:08:45;;;;;;;7.63;3.42;;;;;;;;;;5093322;28;20040;-79
2023/12/14 00:11:12;;;;;;;10.02;3.95;;;;;;;;;;5080565;28;20506;-79
2023/12/14 00:13:38;;;;;;;12.70;4.32;;;6.00;99.90;;;;;;5090112;28;20410;-79
2023/12/14 00:16:06;;;;;;;8.70;3.92;;;;;;;;;;5072416;28;20048;-79
2023/12/14 00:18:31;;;;;;;9.15;4.00;;;;;;;;;;5071277;28;20394;-79
2023/12/14 00:20:59;;;;;;;5.88;2.75;;;;;;;;;;5088869;28;20028;-79
2023/12/14 00:23:25;;;;;;;7.55;2.80;;;;;;;;;;5091898;28;20030;-80
2023/12/14 00:25:51;;;;;;;8.82;3.53;;;;;;;;;;5094687;28;20028;-80
2023/12/14 00:28:17;;;;;;;6.78;3.58;;;;;;;;;;5075888;28;20103;-79
2023/12/14 00:30:43;;;;;;;6.85;3.15;;;;;;;;;;5075843;28;20393;-80
2023/12/14 00:33:10;;;;;;;7.82;3.63;;;;;;;;;;5075459;28;20555;-79
2023/12/14 00:35:36;;;;;;;11.15;4.22;;;;;;;;;;5091060;28;20051;-80
2023/12/14 00:38:02;;;;;;;7.35;2.80;;;;;;;;;;5108867;28;20386;-78
2023/12/14 00:40:28;;;;;;;6.13;3.42;;;;;;;;;;5105206;28;20050;-78
2023/12/14 00:42:54;;;;;;;12.43;3.42;;;;;;;;;;5107213;28;20032;-79
2023/12/14 00:45:20;;;;;;;5.90;3.05;;;;;;;;;;5106518;28;20039;-81
2023/12/14 00:47:47;;;;;;;6.75;3.65;;;;;;;;;;5093804;28;20464;-80
2023/12/14 00:50:13;;;;;;;5.90;3.13;;;;;;;;;;5077924;28;20074;-80
2023/12/14 00:52:39;;;;;;;10.20;3.22;;;;;;;;;;5087931;28;20229;-78
2023/12/14 00:55:05;;;;;;;8.73;4.28;;;;;;;;;;5091588;28;20037;-78
2023/12/14 00:57:31;;;;;;;8.60;3.03;;;;;;;;;;5113456;28;20020;-78
2023/12/14 00:59:57;;;;;;;7.03;2.85;;;;;;;;;;5093627;28;20031;-79
2023/12/14 01:02:23;;;;;;;11.00;3.75;;;;;;;;;;5089673;28;20111;-80
2023/12/14 01:04:49;;;;;;;6.55;3.05;;;;;;;;;;5066701;28;20077;-79
2023/12/14 01:07:15;;;;;;;8.55;3.63;;;;;;;;;;5058505;28;20028;-79
2023/12/14 01:09:41;;;;;;;7.20;3.38;;;;;;;;;;5086719;28;20047;-79
2023/12/14 01:12:07;;;;;;;9.02;4.00;;;;;;;;;;5077155;28;20409;-79
2023/12/14 01:14:34;;;;;;;11.35;4.25;;;;;;;;;;5072509;28;20530;-78
2023/12/14 01:17:00;;;;;;;10.68;3.88;;;;;;;;;;5088893;28;20024;-79
2023/12/14 01:19:26;;;;;;;9.88;4.28;;;;;;;;;;5087592;28;20528;-78
2023/12/14 01:21:55;;;;;;;7.80;3.67;;;;;;;;;;5094702;28;20026;-81
2023/12/14 01:24:21;;;;;;;6.38;3.00;;;;;;;;;;5092564;28;20032;-79
2023/12/14 01:26:46;;;;;;;11.02;4.53;;;;;;;;;;5089381;28;20906;-79
2023/12/14 01:29:13;;;;;;;8.25;3.72;;;;;;;;;;5072269;28;20044;-79
2023/12/14 01:31:39;;;;;;;8.02;3.78;;;;;;;;;;5089976;28;20028;-79
2023/12/14 01:34:05;;;;;;;8.52;3.50;;;;;;;;;;5092360;28;20030;-79
2023/12/14 01:36:31;;;;;;;10.55;4.43;;;;;;;;;;5073933;28;20028;-79
2023/12/14 01:38:57;;;;;;;12.60;4.80;;;;;;;;;;5072621;28;20077;-80
2023/12/14 01:41:23;;;;;;;19.67;7.70;;;;;;;;;;5070111;28;20033;-79
2023/12/14 01:43:49;;;;;;;41.40;14.02;;;;;;;;;;5085413;28;20036;-80
2023/12/14 01:46:16;;;;;;;65.53;22.02;;;;;;;;;;5073851;28;20080;-79
2023/12/14 01:48:42;;;;;;;50.15;17.13;;;;;;;;;;5087997;28;20032;-80
2023/12/14 01:51:08;;;;;;;63.95;18.55;;;;;;;;;;5068122;28;20093;-80
2023/12/14 01:53:35;;;;;;;44.20;15.82;;;;;;;;;;5088248;28;20059;-79
2023/12/14 01:56:01;;;;;;;32.78;11.27;;;;;;;;;;5092213;28;20026;-79
2023/12/14 01:58:27;;;;;;;17.10;7.70;;;;;;;;;;5094446;28;20032;-79
2023/12/14 02:01:18;;;;;;;9.30;4.78;;;;;;;;;;5073318;28;20029;-79
2023/12/14 02:03:45;;;;;;;16.13;6.85;;;;;;;;;;5086067;28;20036;-78
2023/12/14 02:06:11;;;;;;;18.65;5.93;;;;;;;;;;5084827;28;20027;-79
2023/12/14 02:08:37;;;;;;;12.18;5.18;;;;;;;;;;5072917;28;20043;-79
2023/12/14 02:11:03;;;;;;;13.35;5.57;;;;;;;;;;5068765;28;20039;-78
2023/12/14 02:13:29;;;;;;;16.83;6.55;;;6.70;99.90;;;;;;5094791;28;20107;-80
2023/12/14 02:15:55;;;;;;;13.75;6.07;;;;;;;;;;5090298;28;20023;-79
2023/12/14 02:18:21;;;;;;;15.20;5.65;;;;;;;;;;5085183;28;20024;-79
2023/12/14 02:20:47;;;;;;;13.05;5.45;;;;;;;;;;5059425;28;20032;-79
2023/12/14 02:23:13;;;;;;;20.13;6.82;;;;;;;;;;5090305;28;20366;-79
2023/12/14 02:25:39;;;;;;;21.02;8.27;;;;;;;;;;5067089;28;20504;-79
2023/12/14 02:28:06;;;;;;;26.67;11.65;;;;;;;;;;5071635;28;20051;-80
2023/12/14 02:30:32;;;;;;;24.02;9.60;;;;;;;;;;5073317;28;20047;-79
2023/12/14 02:32:58;;;;;;;21.50;10.48;;;;;;;;;;5087755;28;20024;-79
2023/12/14 02:35:24;;;;;;;23.17;9.50;;;;;;;;;;5072432;28;20545;-79
2023/12/14 02:37:50;;;;;;;15.65;7.40;;;;;;;;;;5089291;28;20032;-79
2023/12/14 02:40:17;;;;;;;18.30;7.75;;;;;;;;;;5090546;28;20525;-79
2023/12/14 02:42:43;;;;;;;15.95;7.20;;;;;;;;;;5066891;28;20034;-79
2023/12/14 02:45:09;;;;;;;16.15;6.65;;;;;;;;;;5070338;28;20020;-79
2023/12/14 02:47:35;;;;;;;18.10;7.68;;;;;;;;;;5084939;28;21750;-79
2023/12/14 02:50:01;;;;;;;14.75;6.63;;;;;;;;;;5087953;28;20523;-79
2023/12/14 02:52:27;;;;;;;15.52;6.65;;;;;;;;;;5067585;28;20422;-79
2023/12/14 02:54:53;;;;;;;13.65;6.13;;;;;;;;;;5067388;28;20484;-79
2023/12/14 02:57:19;;;;;;;12.55;5.95;;;;;;;;;;5086115;28;20036;-80
2023/12/14 02:59:45;;;;;;;17.83;6.97;;;;;;;;;;5085924;28;20031;-79
2023/12/14 03:02:11;;;;;;;14.85;6.70;;;;;;;;;;5072493;28;20020;-79
2023/12/14 03:04:40;;;;;;;18.67;7.93;;;;;;;;;;5089239;28;20082;-80
2023/12/14 03:07:07;;;;;;;20.13;6.55;;;;;;;;;;5091012;28;20084;-79
2023/12/14 03:09:35;;;;;;;13.05;6.28;;;;;;;;;;5086490;28;20060;-79
2023/12/14 03:12:01;;;;;;;13.77;6.03;;;;;;;;;;5072216;28;20029;-79
2023/12/14 03:14:32;;;;;;;14.32;6.32;;;;;;;;;;5075267;28;20016;-78
2023/12/14 03:16:58;;;;;;;10.82;6.00;;;;;;;;;;5073603;28;20082;-79
2023/12/14 03:19:24;;;;;;;13.68;6.47;;;;;;;;;;5087685;28;20086;-79
2023/12/14 03:21:50;;;;;;;16.58;6.88;;;;;;;;;;5071382;28;20394;-80
2023/12/14 03:24:16;;;;;;;19.45;7.15;;;;;;;;;;5087539;28;20421;-79
2023/12/14 03:26:42;;;;;;;19.58;8.10;;;;;;;;;;5071458;28;20028;-80
2023/12/14 03:29:08;;;;;;;16.60;7.38;;;;;;;;;;5072798;28;20393;-79
2023/12/14 03:31:35;;;;;;;13.75;5.53;;;;;;;;;;5070399;28;20051;-79
2023/12/14 03:34:01;;;;;;;13.10;5.88;;;;;;;;;;5070324;28;20036;-79
2023/12/14 03:36:27;;;;;;;14.73;6.63;;;;;;;;;;5070841;28;20051;-78
2023/12/14 03:38:53;;;;;;;15.80;6.88;;;;;;;;;;5071168;28;20437;-79
2023/12/14 03:41:19;;;;;;;14.45;5.57;;;;;;;;;;5072491;28;20701;-79
2023/12/14 03:43:45;;;;;;;12.63;5.25;;;;;;;;;;5086340;28;20028;-78
2023/12/14 03:46:11;;;;;;;10.48;5.82;;;;;;;;;;5088277;28;20674;-78
2023/12/14 03:48:37;;;;;;;14.00;5.70;;;;;;;;;;5089186;28;20330;-79
2023/12/14 03:51:03;;;;;;;15.80;6.40;;;;;;;;;;5084273;28;20054;-80
2023/12/14 03:53:30;;;;;;;11.02;5.05;;;;;;;;;;5087314;28;20035;-80
2023/12/14 03:55:56;;;;;;;14.23;5.68;;;;;;;;;;5085048;28;20040;-79
2023/12/14 03:58:22;;;;;;;14.82;5.82;;;;;;;;;;5090139;28;20032;-79
2023/12/14 04:00:48;;;;;;;12.70;5.90;;;;;;;;;;5083915;28;20028;-79
2023/12/14 04:03:14;;;;;;;12.90;5.25;;;;;;;;;;5077842;28;20035;-80
2023/12/14 04:05:40;;;;;;;13.35;5.72;;;;;;;;;;5066399;28;20043;-79
2023/12/14 04:08:06;;;;;;;16.52;6.63;;;;;;;;;;5071387;28;20059;-79
2023/12/14 04:10:32;;;;;;;16.73;7.32;;;;;;;;;;5086337;28;20047;-79
2023/12/14 04:12:58;;;;;;;17.08;5.55;;;;;;;;;;5056045;28;20031;-79
2023/12/14 04:15:24;;;;;;;12.85;5.30;;;;;;;;;;5105090;28;20336;-78
2023/12/14 04:17:50;;;;;;;12.48;5.80;;;;;;;;;;5092816;28;20367;-79
2023/12/14 04:20:16;;;;;;;12.80;5.35;;;;;;;;;;5073673;28;20457;-79
2023/12/14 04:22:43;;;;;;;14.48;6.65;;;;;;;;;;5089164;28;20020;-79
2023/12/14 04:25:09;;;;;;;15.63;6.57;;;;;;;;;;5078942;28;20025;-79
2023/12/14 04:27:35;;;;;;;11.05;4.57;;;;;;;;;;5089531;28;20024;-79
2023/12/14 04:30:01;;;;;;;14.05;5.75;;;;;;;;;;5086295;28;20111;-79
2023/12/14 04:32:27;;;;;;;12.25;5.38;;;;;;;;;;5086422;28;20107;-78
2023/12/14 04:34:53;;;;;;;15.00;6.60;;;;;;;;;;5081341;28;20032;-78
2023/12/14 04:37:19;;;;;;;17.48;7.18;;;;;;;;;;5086083;28;20054;-79
2023/12/14 04:39:45;;;;;;;15.85;6.25;;;;;;;;;;5089355;28;20023;-79
2023/12/14 04:42:11;;;;;;;19.40;7.20;;;;;;;;;;5067248;28;20024;-79
2023/12/14 04:44:37;;;;;;;11.82;5.70;;;;;;;;;;5068408;28;20031;-80
2023/12/14 04:47:03;;;;;;;13.32;5.00;;;;;;;;;;5086241;28;20490;-78
2023/12/14 04:49:29;;;;;;;13.63;5.55;;;;;;;;;;5086808;28;20036;-79
2023/12/14 04:51:55;;;;;;;13.05;5.45;;;;;;;;;;5083025;28;20537;-79
2023/12/14 04:54:21;;;;;;;10.15;5.00;;;;;;;;;;5066984;28;20605;-79
2023/12/14 04:56:47;;;;;;;14.25;5.53;;;;;;;;;;5069191;28;20627;-79
2023/12/14 04:59:13;;;;;;;11.20;5.00;;;;;;;;;;5084185;28;22335;-79
2023/12/14 05:01:39;;;;;;;17.88;6.63;;;;;;;;;;5081334;28;20024;-79
2023/12/14 05:04:05;;;;;;;18.60;7.35;;;;;;;;;;5090810;28;20121;-79
2023/12/14 05:06:33;;;;;;;14.13;6.55;;;;;;;;;;5087281;28;20024;-79
2023/12/14 05:09:02;;;;;;;12.77;5.88;;;;;;;;;;5089437;28;20406;-79
2023/12/14 05:11:28;;;;;;;15.80;6.55;;;;;;;;;;5087011;28;20043;-79
2023/12/14 05:13:54;;;;;;;11.90;5.57;;;;;;;;;;5087032;28;20075;-79
2023/12/14 05:16:20;;;;;;;18.27;6.63;;;;;;;;;;5075680;28;20219;-79
2023/12/14 05:18:46;;;;;;;14.32;6.18;;;;;;;;;;5091364;28;20035;-79
2023/12/14 05:21:18;;;;;;;15.23;5.43;;;6.60;99.90;;;;;;5089307;28;20024;-78
2023/12/14 05:23:44;;;;;;;13.18;5.15;;;;;;;;;;5090061;28;20024;-79
2023/12/14 05:26:10;;;;;;;14.23;5.90;;;;;;;;;;5072698;28;20020;-79
2023/12/14 05:28:36;;;;;;;12.98;5.38;;;;;;;;;;5091488;28;20351;-78
2023/12/14 05:31:02;;;;;;;13.35;6.60;;;;;;;;;;5086226;28;20036;-79
2023/12/14 05:33:31;;;;;;;15.50;6.70;;;6.50;99.90;;;;;;5074906;28;20024;-79
2023/12/14 05:35:57;;;;;;;17.75;6.95;;;;;;;;;;5072455;28;20051;-78
2023/12/14 05:38:23;;;;;;;14.80;5.43;;;;;;;;;;5074402;28;20510;-79
2023/12/14 05:40:49;;;;;;;18.20;7.22;;;;;;;;;;5089506;28;20049;-81
2023/12/14 05:43:15;;;;;;;21.20;7.90;;;;;;;;;;5086091;28;20028;-80
2023/12/14 05:45:41;;;;;;;23.85;8.00;;;;;;;;;;5089457;28;20043;-80
2023/12/14 05:48:07;;;;;;;16.35;6.82;;;;;;;;;;5089068;28;20020;-79
2023/12/14 05:50:33;;;;;;;16.23;6.97;;;;;;;;;;5088357;28;20024;-79
2023/12/14 05:52:59;;;;;;;22.63;8.43;;;;;;;;;;5068211;28;20606;-79
2023/12/14 05:55:25;;;;;;;15.60;7.63;;;;;;;;;;5087548;28;20028;-78
2023/12/14 05:57:51;;;;;;;9.25;5.15;;;;;;;;;;5086722;28;20095;-78
2023/12/14 06:00:18;;;;;;;15.18;7.72;;;6.30;99.90;;;;;;5082027;28;20027;-79
2023/12/14 06:02:44;;;;;;;16.77;7.40;;;;;;;;;;5088393;28;20032;-79
2023/12/14 06:05:10;;;;;;;19.83;7.32;;;;;;;;;;5069095;28;20047;-79
2023/12/14 06:07:36;;;;;;;18.05;8.13;;;;;;;;;;5071205;28;20062;-78
2023/12/14 06:10:02;;;;;;;15.45;5.65;;;;;;;;;;5080843;28;20028;-79
2023/12/14 06:12:28;;;;;;;15.23;6.15;;;;;;;;;;5075152;28;20056;-79
2023/12/14 06:14:54;;;;;;;26.58;9.05;;;;;;;;;;5085922;28;20020;-78
2023/12/14 06:17:20;;;;;;;19.75;7.88;;;;;;;;;;5087284;28;20624;-79
2023/12/14 06:19:46;;;;;;;22.13;9.23;;;;;;;;;;5085198;28;20028;-79
2023/12/14 06:22:11;;;;;;;19.95;8.27;;;;;;;;;;5089349;28;20373;-79
2023/12/14 06:24:37;;;;;;;23.38;7.50;;;;;;;;;;5087948;28;20067;-79
2023/12/14 06:27:03;;;;;;;20.13;8.73;;;;;;;;;;5099692;28;20032;-77
2023/12/14 06:29:29;;;;;;;41.25;14.35;;;;;;;;;;5081079;28;20058;-78
2023/12/14 06:31:55;;;;;;;29.00;11.25;;;;;;;;;;5091529;28;20036;-77
2023/12/14 06:34:21;;;;;;;26.75;9.98;;;;;;;;;;5074252;28;20027;-79
2023/12/14 06:36:47;;;;;;;19.23;7.57;;;;;;;;;;5086784;28;20107;-78
2023/12/14 06:39:13;;;;;;;21.00;8.63;;;;;;;;;;5098931;28;20100;-78
2023/12/14 06:41:39;;;;;;;27.52;9.93;;;;;;;;;;5083264;28;20032;-78
2023/12/14 06:44:06;;;;;;;21.08;9.90;;;;;;;;;;5053562;28;20086;-79
2023/12/14 06:46:32;;;;;;;17.13;7.72;;;;;;;;;;5088227;28;20016;-79
2023/12/14 06:48:58;;;;;;;15.90;6.70;;;;;;;;;;5068729;28;20106;-77
2023/12/14 06:51:24;;;;;;;15.57;8.07;;;;;;;;;;5060903;28;20049;-79
2023/12/14 06:53:50;;;;;;;20.35;7.95;;;;;;;;;;5089478;28;20501;-79
2023/12/14 06:56:16;;;;;;;19.13;7.85;;;;;;;;;;5087757;28;20020;-79
2023/12/14 06:58:43;;;;;;;15.57;6.93;;;;;;;;;;5081292;28;20448;-79
2023/12/14 07:01:14;;;;;;;20.83;7.32;;;;;;;;;;5082185;28;20017;-78
2023/12/14 07:03:41;;;;;;;14.13;7.13;;;;;;;;;;5070854;28;20060;-77
2023/12/14 07:06:08;;;;;;;18.05;7.88;;;;;;;;;;5065243;28;20393;-79
2023/12/14 07:08:33;;;;;;;21.45;7.38;;;;;;;;;;5075479;28;20038;-78
2023/12/14 07:10:59;;;;;;;16.42;6.80;;;;;;;;;;5087345;28;20028;-79
2023/12/14 07:13:25;;;;;;;22.35;8.95;;;;;;;;;;5085497;28;20105;-78
2023/12/14 07:15:52;;;;;;;21.60;8.23;;;;;;;;;;5090015;28;20561;-79
2023/12/14 07:18:18;;;;;;;22.63;7.90;;;;;;;;;;5063305;28;20055;-78
2023/12/14 07:20:44;;;;;;;18.13;7.03;;;;;;;;;;5086673;28;20064;-78
2023/12/14 07:23:09;;;;;;;17.10;7.25;;;;;;;;;;5089684;28;20020;-78
2023/12/14 07:25:36;;;;;;;18.85;8.05;;;;;;;;;;5086073;28;20028;-79
2023/12/14 07:28:02;;;;;;;16.15;6.55;;;;;;;;;;5084677;28;20020;-79
2023/12/14 07:30:28;;;;;;;18.05;8.05;;;;;;;;;;5072529;28;20020;-79
2023/12/14 07:32:54;;;;;;;21.75;7.88;;;;;;;;;;5095839;28;20073;-79
2023/12/14 07:35:19;;;;;;;18.90;6.82;;;6.90;99.90;;;;;;5084321;28;20017;-79
2023/12/14 07:37:45;;;;;;;19.50;7.43;;;;;;;;;;5072687;28;20025;-79
2023/12/14 07:40:12;;;;;;;10.85;5.75;;;;;;;;;;5071217;28;20486;-79
2023/12/14 07:42:38;;;;;;;20.50;6.93;;;;;;;;;;5070532;28;20039;-78
2023/12/14 07:45:04;;;;;;;17.40;5.93;;;;;;;;;;5070211;28;20032;-79
2023/12/14 07:47:30;;;;;;;17.27;7.53;;;;;;;;;;5070996;28;20024;-79
2023/12/14 07:49:56;;;;;;;18.58;7.10;;;;;;;;;;5068939;28;20604;-79
2023/12/14 07:52:22;;;;;;;21.13;7.15;;;;;;;;;;5085640;28;20024;-79
2023/12/14 07:54:48;;;;;;;16.70;6.38;;;;;;;;;;5093210;28;20048;-78
2023/12/14 07:57:14;;;;;;;24.60;7.93;;;;;;;;;;5085858;28;20119;-79
2023/12/14 07:59:40;;;;;;;19.25;8.32;;;;;;;;;;5086070;28;20028;-79
2023/12/14 08:02:05;;;;;;;23.75;8.60;;;6.80;99.90;;;;;;5067097;28;20460;-79
2023/12/14 08:04:33;;;;;;;17.60;7.47;;;;;;;;;;5089649;28;20111;-79
2023/12/14 08:07:00;;;;;;;18.65;7.00;;;;;;;;;;5083527;28;20016;-79
2023/12/14 08:09:26;;;;;;;19.58;7.38;;;;;;;;;;5091586;28;20110;-78
2023/12/14 08:11:52;;;;;;;19.40;7.45;;;;;;;;;;5090667;28;20103;-78
2023/12/14 08:14:18;;;;;;;21.67;6.68;;;;;;;;;;5082757;28;20044;-79
2023/12/14 08:16:44;;;;;;;18.35;7.38;;;;;;;;;;5086987;28;20465;-78
2023/12/14 08:19:10;;;;;;;20.40;6.50;;;;;;;;;;5069739;28;20055;-78
2023/12/14 08:21:36;;;;;;;15.77;7.13;;;;;;;;;;5065769;28;20520;-79
2023/12/14 08:24:02;;;;;;;18.58;6.85;;;;;;;;;;5082717;28;20028;-78
2023/12/14 08:26:28;;;;;;;16.90;6.57;;;;;;;;;;5071726;28;20060;-78
2023/12/14 08:28:54;;;;;;;15.23;6.57;;;;;;;;;;5088131;28;20068;-79
2023/12/14 08:31:20;;;;;;;17.65;7.18;;;;;;;;;;5083122;28;20507;-78
2023/12/14 08:33:46;;;;;;;17.00;6.63;;;;;;;;;;5088145;28;20486;-80
2023/12/14 08:36:16;;;;;;;18.80;6.90;;;;;;;;;;5076430;28;20405;-79
2023/12/14 08:38:42;;;;;;;15.77;6.90;;;;;;;;;;5076919;28;20020;-79
2023/12/14 08:41:08;;;;;;;18.17;7.32;;;;;;;;;;5099039;28;20100;-77
2023/12/14 08:43:34;;;;;;;24.45;9.00;;;;;;;;;;5102326;28;20034;-77
2023/12/14 08:46:00;;;;;;;22.00;8.68;;;;;;;;;;5059080;28;20111;-79
2023/12/14 08:48:26;;;;;;;27.85;9.38;;;;;;;;;;5090097;28;20036;-79
2023/12/14 08:50:55;;;;;;;25.15;9.77;;;;;;;;;;5074663;28;20027;-79
2023/12/14 08:53:21;;;;;;;19.08;7.60;;;;;;;;;;5093035;28;20501;-78
2023/12/14 08:55:46;;;;;;;22.38;8.13;;;;;;;;;;5089941;28;20065;-79
2023/12/14 08:58:13;;;;;;;19.80;7.53;;;;;;;;;;5092782;28;20080;-78
2023/12/14 09:00:39;;;;;;;24.95;9.93;;;;;;;;;;5093958;28;20489;-78
2023/12/14 09:03:05;;;;;;;21.63;8.30;;;;;;;;;;5091076;28;20036;-79
2023/12/14 09:05:31;;;;;;;28.20;9.07;;;;;;;;;;5068944;28;20501;-79
2023/12/14 09:07:59;;;;;;;29.42;9.40;;;;;;;;;;5071262;28;20032;-79
2023/12/14 09:10:25;;;;;;;24.38;8.90;;;;;;;;;;5087279;28;20024;-78
2023/12/14 09:12:51;;;;;;;22.23;9.05;;;;;;;;;;5068625;28;20070;-79
2023/12/14 09:15:17;;;;;;;30.98;8.73;;;;;;;;;;5087628;28;20044;-79
2023/12/14 09:17:43;;;;;;;18.98;7.68;;;;;;;;;;5091097;28;20036;-79
2023/12/14 09:20:11;;;;;;;21.60;7.80;;;;;;;;;;5085018;28;20039;-78
2023/12/14 09:22:37;;;;;;;22.65;8.00;;;;;;;;;;5088302;28;20401;-78
2023/12/14 09:25:03;;;;;;;22.58;8.45;;;8.20;99.90;;;;;;5071402;28;20040;-79
2023/12/14 09:27:30;;;;;;;20.83;8.00;;;;;;;;;;5082926;28;20063;-79
2023/12/14 09:29:57;;;;;;;22.98;7.55;;;;;;;;;;5047576;28;20040;-78
2023/12/14 09:32:23;;;;;;;16.73;7.65;;;;;;;;;;5087277;28;20031;-79
2023/12/14 09:34:49;;;;;;;21.38;8.38;;;;;;;;;;5087707;28;20382;-78
2023/12/14 09:37:15;;;;;;;17.42;8.07;;;;;;;;;;5086844;28;20051;-79
2023/12/14 09:39:41;;;;;;;18.77;7.35;;;;;;;;;;5087900;28;20482;-79
2023/12/14 09:42:08;;;;;;;22.25;7.57;;;;;;;;;;5087191;28;20508;-78
2023/12/14 09:44:35;;;;;;;21.73;8.40;;;;;;;;;;5066697;28;20030;-79
2023/12/14 09:47:02;;;;;;;19.80;8.18;;;;;;;;;;5092832;28;20028;-78
2023/12/14 09:49:30;;;;;;;24.55;9.05;;;;;;;;;;5090791;28;20019;-78
2023/12/14 09:51:56;;;;;;;20.20;8.40;;;;;;;;;;5092198;28;20032;-78
2023/12/14 09:54:23;;;;;;;25.60;9.63;;;;;;;;;;5092227;28;20028;-79
2023/12/14 09:56:49;;;;;;;21.23;8.40;;;;;;;;;;5093167;28;20028;-77
2023/12/14 09:59:16;;;;;;;18.17;8.13;;;;;;;;;;5078184;28;20106;-78
2023/12/14 10:01:42;;;;;;;25.92;8.98;;;;;;;;;;5089743;28;20262;-78
2023/12/14 10:04:09;;;;;;;22.80;7.97;;;;;;;;;;5093412;28;20442;-77
2023/12/14 10:06:35;;;;;;;15.07;6.95;;;;;;;;;;5073844;28;20055;-79
2023/12/14 10:09:01;;;;;;;21.50;6.85;;;;;;;;;;5076120;28;20027;-79
2023/12/14 10:11:27;;;;;;;26.42;7.85;;;;;;;;;;5088784;28;20081;-79
2023/12/14 10:13:53;;;;;;;18.05;7.97;;;;;;;;;;5089200;28;20324;-79
2023/12/14 10:16:32;;;;;;;16.73;7.50;;;;;;;;;;5088481;28;20176;-79
2023/12/14 10:18:58;;;;;;;15.82;7.32;;;;;;;;;;5085919;28;20042;-79
2023/12/14 10:21:28;;;;;;;25.30;8.93;;;;;;;;;;5086398;28;20035;-79
2023/12/14 10:23:57;;;;;;;13.65;6.47;;;;;;;;;;5073922;28;20043;-79
2023/12/14 10:26:24;;;;;;;14.25;5.90;;;;;;;;;;5086540;28;20051;-79
2023/12/14 10:28:51;;;;;;;17.25;5.40;;;;;;;;;;5085799;28;20040;-78
2023/12/14 10:31:18;;;;;;;14.60;5.85;;;;;;;;;;5085095;28;20016;-79
2023/12/14 10:33:45;;;;;;;16.23;6.93;;;;;;;;;;5082760;28;20037;-78
2023/12/14 10:36:14;;;;;;;15.65;6.10;;;;;;;;;;5087081;28;20031;-79
2023/12/14 10:38:41;;;;;;;14.85;7.20;;;;;;;;;;5070074;28;20029;-78
2023/12/14 10:41:07;;;;;;;16.58;5.90;;;;;;;;;;5087110;28;20032;-79
2023/12/14 10:43:37;;;;;;;12.63;5.28;;;;;;;;;;5069314;28;20315;-79
2023/12/14 10:46:04;;;;;;;17.88;6.97;;;;;;;;;;5068401;28;20048;-80
2023/12/14 10:48:30;;;;;;;17.50;7.05;;;;;;;;;;5083089;28;20098;-79
2023/12/14 10:50:57;;;;;;;17.50;6.38;;;;;;;;;;5086866;28;20054;-79
2023/12/14 10:53:25;;;;;;;17.48;6.28;;;;;;;;;;5086034;28;20028;-79
2023/12/14 10:55:52;;;;;;;14.63;5.65;;;;;;;;;;5087595;28;20065;-79
2023/12/14 10:58:20;;;;;;;15.45;5.82;;;;;;;;;;5074176;28;20035;-78
2023/12/14 11:01:00;;;;;;;17.75;6.53;;;;;;;;;;5106948;28;20049;-77
2023/12/14 11:03:26;;;;;;;15.98;6.38;;;;;;;;;;5101229;28;20035;-78
2023/12/14 11:05:53;;;;;;;16.42;6.40;;;;;;;;;;5090770;28;20184;-79
2023/12/14 11:08:20;;;;;;;14.40;6.15;;;;;;;;;;5093169;28;20058;-78
2023/12/14 11:11:10;;;;;;;17.77;6.55;;;;;;;;;;5092203;28;20027;-79
2023/12/14 11:13:38;;;;;;;18.35;6.28;;;;;;;;;;5088060;28;20027;-79
2023/12/14 11:16:04;;;;;;;16.77;6.97;;;;;;;;;;5096307;28;20031;-78
2023/12/14 11:18:31;;;;;;;15.80;6.80;;;;;;;;;;5073788;28;20023;-78
2023/12/14 11:21:01;;;;;;;11.77;5.32;;;8.60;99.90;;;;;;5061025;28;20127;-79
2023/12/14 11:23:36;;;;;;;15.00;5.50;;;8.70;99.90;;;;;;5089756;28;20027;-79
2023/12/14 11:26:06;;;;;;;12.40;5.82;;;;;;;;;;5071864;28;20062;-79
2023/12/14 11:28:33;;;;;;;12.18;6.10;;;;;;;;;;5067826;28;20079;-79
2023/12/14 11:30:59;;;;;;;11.55;5.68;;;;;;;;;;5088331;28;22349;-78
2023/12/14 11:33:27;;;;;;;10.00;5.13;;;;;;;;;;5074994;28;20035;-79
2023/12/14 11:35:53;;;;;;;14.20;6.45;;;;;;;;;;5087846;28;20073;-78
2023/12/14 11:38:20;;;;;;;18.77;5.90;;;;;;;;;;5090928;28;20074;-79
2023/12/14 11:40:48;;;;;;;13.93;5.25;;;8.90;99.90;;;;;;5095530;28;20034;-78
2023/12/14 11:43:15;;;;;;;14.50;5.10;;;;;;;;;;5098786;28;20027;-77
2023/12/14 11:45:41;;;;;;;17.70;5.18;;;;;;;;;;5101348;28;20258;-77
2023/12/14 11:48:11;;;;;;;11.23;5.22;;;8.70;99.90;;;;;;5105263;28;20072;-77
2023/12/14 11:50:42;;;;;;;10.80;5.65;;;;;;;;;;5102492;28;20036;-77
2023/12/14 11:53:09;;;;;;;14.77;6.13;;;;;;;;;;5108132;28;20023;-77
2023/12/14 11:55:38;;;;;;;14.93;6.57;;;;;;;;;;5103630;28;20023;-77
2023/12/14 11:58:05;;;;;;;11.48;5.45;;;;;;;;;;5112915;28;20080;-77
2023/12/14 12:00:31;;;;;;;8.70;4.97;;;;;;;;;;5099366;28;20024;-79
2023/12/14 12:03:08;;;;;;;13.85;5.82;;;;;;;;;;5071410;28;20208;-80
2023/12/14 12:05:38;;;;;;;13.88;5.50;;;;;;;;;;5070012;28;20463;-79
2023/12/14 12:08:04;;;;;;;11.60;5.13;;;;;;;;;;5088699;28;20070;-80
2023/12/14 12:10:30;;;;;;;13.85;5.63;;;;;;;;;;5086885;28;20044;-80
2023/12/14 12:13:01;;;;;;;15.45;6.30;;;;;;;;;;5092585;28;20129;-79
2023/12/14 12:15:27;;;;;;;14.27;5.97;;;;;;;;;;5094114;28;20020;-79
2023/12/14 12:17:52;;;;;;;13.75;6.70;;;;;;;;;;5094446;28;20038;-79
2023/12/14 12:20:19;;;;;;;21.92;7.35;;;;;;;;;;5075648;28;20019;-79
2023/12/14 12:22:45;;;;;;;12.35;6.13;;;;;;;;;;5091245;28;20025;-79
2023/12/14 12:25:11;;;;;;;16.38;6.68;;;;;;;;;;5077335;28;20016;-77
2023/12/14 12:27:37;;;;;;;17.38;7.35;;;;;;;;;;5092022;28;20032;-78
2023/12/14 12:30:03;;;;;;;16.50;6.95;;;;;;;;;;5077359;28;20024;-79
2023/12/14 12:32:29;;;;;;;20.10;7.68;;;;;;;;;;5093677;28;20041;-79
2023/12/14 12:34:55;;;;;;;21.52;6.90;;;;;;;;;;5076098;28;20091;-79
2023/12/14 12:37:22;;;;;;;17.35;6.20;;;;;;;;;;5088006;28;20020;-78
2023/12/14 12:39:48;;;;;;;15.63;6.57;;;;;;;;;;5073547;28;20100;-78
2023/12/14 12:42:14;;;;;;;11.15;5.20;;;;;;;;;;5094765;28;20062;-79
2023/12/14 12:44:40;;;;;;;12.93;5.78;;;;;;;;;;5073063;28;20486;-78
2023/12/14 12:47:07;;;;;;;21.17;7.72;;;;;;;;;;5088229;28;20036;-79
2023/12/14 12:49:33;;;;;;;12.82;6.25;;;;;;;;;;5075652;28;20359;-79
2023/12/14 12:51:59;;;;;;;15.40;6.53;;;;;;;;;;5076635;28;20020;-79
2023/12/14 12:54:25;;;;;;;11.40;5.22;;;;;;;;;;5095455;28;20478;-80
2023/12/14 12:56:51;;;;;;;34.20;13.88;;;;;;;;;;5097005;28;20040;-79
2023/12/14 12:59:17;;;;;;;34.42;13.65;;;;;;;;;;5094588;28;20035;-79
2023/12/14 13:01:44;;;;;;;13.77;5.72;;;;;;;;;;5094390;28;20099;-79
2023/12/14 13:04:20;;;;;;;16.52;6.15;;;;;;;;;;5093262;28;20020;-79
2023/12/14 13:06:50;;;;;;;14.07;5.95;;;;;;;;;;5074619;28;20028;-79
2023/12/14 13:09:17;;;;;;;10.85;5.40;;;8.40;99.90;;;;;;5086754;28;20025;-79
2023/12/14 13:11:43;;;;;;;21.25;7.32;;;;;;;;;;5074902;28;20040;-80
2023/12/14 13:14:09;;;;;;;13.30;5.53;;;;;;;;;;5098022;28;20035;-80
2023/12/14 13:16:36;;;;;;;18.08;6.82;;;;;;;;;;5090106;28;20031;-77
2023/12/14 13:19:03;;;;;;;11.45;5.47;;;;;;;;;;5086190;28;20077;-79
2023/12/14 13:21:29;;;;;;;12.52;5.63;;;;;;;;;;5080659;28;20044;-77
2023/12/14 13:23:57;;;;;;;19.42;8.38;;;;;;;;;;5095489;28;20118;-79
2023/12/14 13:26:24;;;;;;;22.67;9.32;;;;;;;;;;5093772;28;20016;-79
2023/12/14 13:28:50;;;;;;;16.15;7.57;;;;;;;;;;5062497;28;20036;-79
2023/12/14 13:31:16;;;;;;;14.45;5.95;;;;;;;;;;5076945;28;20083;-78
2023/12/14 13:33:42;;;;;;;14.30;6.32;;;;;;;;;;5077780;28;20043;-79
2023/12/14 13:36:08;;;;;;;21.52;11.50;;;;;;;;;;5092722;28;20035;-80
2023/12/14 13:38:35;;;;;;;14.15;6.35;;;;;;;;;;5057627;28;20389;-79
2023/12/14 13:41:02;;;;;;;12.05;5.93;;;;;;;;;;5081535;28;20023;-81
2023/12/14 13:43:29;;;;;;;9.68;4.97;;;;;;;;;;5076664;28;20031;-79
2023/12/14 13:45:57;;;;;;;7.93;4.28;;;;;;;;;;5077813;28;20031;-79
2023/12/14 13:48:24;;;;;;;8.65;3.83;;;;;;;;;;5085729;28;20028;-79
2023/12/14 13:50:50;;;;;;;8.70;3.85;;;;;;;;;;5073069;28;20028;-79
2023/12/14 13:53:15;;;;;;;11.07;3.95;;;;;;;;;;5086147;28;20035;-79
2023/12/14 13:55:42;;;;;;;7.75;3.30;;;;;;;;;;5091728;28;20543;-79
2023/12/14 13:58:09;;;;;;;8.27;3.92;;;;;;;;;;5090645;28;20155;-79
2023/12/14 14:00:36;;;;;;;7.97;3.28;;;8.40;99.90;;;;;;5086046;28;20016;-79
2023/12/14 14:03:03;;;;;;;12.40;3.97;;;;;;;;;;5089235;28;20028;-79
2023/12/14 14:05:30;;;;;;;6.88;3.20;;;;;;;;;;5087822;28;20031;-79
2023/12/14 14:07:56;;;;;;;8.93;2.42;;;;;;;;;;5074935;28;20514;-78
2023/12/14 14:10:22;;;;;;;7.57;3.08;;;;;;;;;;5090084;28;20036;-79
2023/12/14 14:12:48;;;;;;;5.22;2.40;;;;;;;;;;5091412;28;20094;-79
2023/12/14 14:15:14;;;;;;;5.82;2.47;;;;;;;;;;5070936;28;20028;-78
2023/12/14 14:17:40;;;;;;;4.78;2.15;;;;;;;;;;5071811;28;20043;-80
2023/12/14 14:20:07;;;;;;;6.53;1.83;;;;;;;;;;5069055;28;20029;-79
2023/12/14 14:22:33;;;;;;;9.55;4.95;;;;;;;;;;5081871;28;20513;-80